sensor_id;sensor_type;location;lat;lon;timestamp;temperature;humidity
23207;DHT22;11773;52.570;13.052;2022-08-07T00:01:56;16.90;99.90
23207;DHT22;11773;52.570;13.052;2022-08-07T00:04:27;16.90;99.90
23207;DHT22;11773;52.570;13.052;2022-08-07T00:06:57;16.90;99.90
23207;DHT22;11773;52.570;13.052;2022-08-07T00:09:28;16.80;99.90
23207;DHT22;11773;52.570;13.052;2022-08-07T00:12:00;16.70;99.90
23207;DHT22;11773;52.570;13.052;2022-08-07T00:14:29;16.60;99.90
23207;DHT22;11773;52.570;13.052;2022-08-07T00:17:00;16.50;99.90
23207;DHT22;11773;52.570;13.052;2022-08-07T00:19:32;16.50;99.90
23207;DHT22;11773;52.570;13.052;2022-08-07T00:22:03;16.50;99.90
23207;DHT22;11773;52.570;13.052;2022-08-07T00:24:33;16.30;99.90
23207;DHT22;11773;52.570;13.052;2022-08-07T00:27:03;16.30;99.90
23207;DHT22;11773;52.570;13.052;2022-08-07T00:29:35;16.20;99.90
23207;DHT22;11773;52.570;13.052;2022-08-07T00:32:06;16.10;99.90
23207;DHT22;11773;52.570;13.052;2022-08-07T00:34:38;16.20;99.90
23207;DHT22;11773;52.570;13.052;2022-08-07T00:37:07;16.30;99.90
23207;DHT22;11773;52.570;13.052;2022-08-07T00:39:37;16.20;99.90
23207;DHT22;11773;52.570;13.052;2022-08-07T00:42:09;16.10;99.90
23207;DHT22;11773;52.570;13.052;2022-08-07T00:44:39;16.00;99.90
23207;DHT22;11773;52.570;13.052;2022-08-07T00:47:08;16.00;99.90
23207;DHT22;11773;52.570;13.052;2022-08-07T00:49:39;16.00;99.90
23207;DHT22;11773;52.570;13.052;2022-08-07T00:52:11;15.90;99.90
23207;DHT22;11773;52.570;13.052;2022-08-07T00:54:42;15.90;99.90
23207;DHT22;11773;52.570;13.052;2022-08-07T00:57:12;16.00;99.90
23207;DHT22;11773;52.570;13.052;2022-08-07T00:59:44;15.90;99.90
23207;DHT22;11773;52.570;13.052;2022-08-07T01:02:15;15.70;99.90
23207;DHT22;11773;52.570;13.052;2022-08-07T01:04:49;15.70;99.90
23207;DHT22;11773;52.570;13.052;2022-08-07T01:07:21;15.70;99.90
23207;DHT22;11773;52.570;13.052;2022-08-07T01:09:52;15.50;99.90
23207;DHT22;11773;52.570;13.052;2022-08-07T01:12:23;15.60;99.90
23207;DHT22;11773;52.570;13.052;2022-08-07T01:14:55;15.30;99.90
23207;DHT22;11773;52.570;13.052;2022-08-07T01:17:28;15.40;99.90
23207;DHT22;11773;52.570;13.052;2022-08-07T01:20:06;15.30;99.90
23207;DHT22;11773;52.570;13.052;2022-08-07T01:22:39;15.40;99.90
23207;DHT22;11773;52.570;13.052;2022-08-07T01:25:12;15.50;99.90
23207;DHT22;11773;52.570;13.052;2022-08-07T01:27:43;15.50;99.90
23207;DHT22;11773;52.570;13.052;2022-08-07T01:30:15;15.50;99.90
23207;DHT22;11773;52.570;13.052;2022-08-07T01:32:45;15.40;99.90
23207;DHT22;11773;52.570;13.052;2022-08-07T01:35:15;15.30;99.90
23207;DHT22;11773;52.570;13.052;2022-08-07T01:37:47;15.40;99.90
23207;DHT22;11773;52.570;13.052;2022-08-07T01:40:19;15.30;99.90
23207;DHT22;11773;52.570;13.052;2022-08-07T01:42:50;15.30;99.90
23207;DHT22;11773;52.570;13.052;2022-08-07T01:45:22;15.30;99.90
23207;DHT22;11773;52.570;13.052;2022-08-07T01:47:55;15.30;99.90
23207;DHT22;11773;52.570;13.052;2022-08-07T01:50:26;15.30;99.90
23207;DHT22;11773;52.570;13.052;2022-08-07T01:52:59;15.30;99.90
23207;DHT22;11773;52.570;13.052;2022-08-07T01:55:35;15.20;99.90
23207;DHT22;11773;52.570;13.052;2022-08-07T01:58:08;15.00;99.90
23207;DHT22;11773;52.570;13.052;2022-08-07T02:00:43;15.00;99.90
23207;DHT22;11773;52.570;13.052;2022-08-07T02:03:19;15.10;99.90
23207;DHT22;11773;52.570;13.052;2022-08-07T02:05:58;15.00;99.90
23207;DHT22;11773;52.570;13.052;2022-08-07T02:08:32;15.10;99.90
23207;DHT22;11773;52.570;13.052;2022-08-07T02:11:07;15.10;99.90
23207;DHT22;11773;52.570;13.052;2022-08-07T02:13:41;14.90;99.90
23207;DHT22;11773;52.570;13.052;2022-08-07T02:16:16;14.90;99.90
23207;DHT22;11773;52.570;13.052;2022-08-07T02:18:49;14.90;99.90
23207;DHT22;11773;52.570;13.052;2022-08-07T02:21:20;14.90;99.90
23207;DHT22;11773;52.570;13.052;2022-08-07T02:23:52;14.80;99.90
23207;DHT22;11773;52.570;13.052;2022-08-07T02:26:23;14.80;99.90
23207;DHT22;11773;52.570;13.052;2022-08-07T02:28:56;14.80;99.90
23207;DHT22;11773;52.570;13.052;2022-08-07T02:31:27;14.60;99.90
23207;DHT22;11773;52.570;13.052;2022-08-07T02:34:00;14.60;99.90
23207;DHT22;11773;52.570;13.052;2022-08-07T02:36:34;14.70;99.90
23207;DHT22;11773;52.570;13.052;2022-08-07T02:39:08;14.70;99.90
23207;DHT22;11773;52.570;13.052;2022-08-07T02:41:41;14.70;99.90
23207;DHT22;11773;52.570;13.052;2022-08-07T02:44:15;14.60;99.90
23207;DHT22;11773;52.570;13.052;2022-08-07T02:46:46;14.70;99.90
23207;DHT22;11773;52.570;13.052;2022-08-07T02:49:19;14.70;99.90
23207;DHT22;11773;52.570;13.052;2022-08-07T02:51:51;14.60;99.90
23207;DHT22;11773;52.570;13.052;2022-08-07T02:54:26;14.60;99.90
23207;DHT22;11773;52.570;13.052;2022-08-07T02:57:00;14.60;99.90
23207;DHT22;11773;52.570;13.052;2022-08-07T02:59:32;14.50;99.90
23207;DHT22;11773;52.570;13.052;2022-08-07T03:02:04;14.50;99.90
23207;DHT22;11773;52.570;13.052;2022-08-07T03:04:35;14.50;99.90
23207;DHT22;11773;52.570;13.052;2022-08-07T03:07:06;14.30;99.90
23207;DHT22;11773;52.570;13.052;2022-08-07T03:09:37;14.20;99.90
23207;DHT22;11773;52.570;13.052;2022-08-07T03:12:10;14.20;99.90
23207;DHT22;11773;52.570;13.052;2022-08-07T03:14:43;14.30;99.90
23207;DHT22;11773;52.570;13.052;2022-08-07T03:17:15;14.40;99.90
23207;DHT22;11773;52.570;13.052;2022-08-07T03:19:45;14.40;99.90
23207;DHT22;11773;52.570;13.052;2022-08-07T03:22:16;14.40;99.90
23207;DHT22;11773;52.570;13.052;2022-08-07T03:24:49;14.40;99.90
23207;DHT22;11773;52.570;13.052;2022-08-07T03:27:19;14.30;99.90
23207;DHT22;11773;52.570;13.052;2022-08-07T03:29:52;14.50;99.90
23207;DHT22;11773;52.570;13.052;2022-08-07T03:32:32;14.20;99.90
23207;DHT22;11773;52.570;13.052;2022-08-07T03:35:24;14.30;99.90
23207;DHT22;11773;52.570;13.052;2022-08-07T03:37:43;14.40;99.90
23207;DHT22;11773;52.570;13.052;2022-08-07T03:40:17;14.40;99.90
23207;DHT22;11773;52.570;13.052;2022-08-07T03:42:50;14.30;99.90
23207;DHT22;11773;52.570;13.052;2022-08-07T03:45:23;14.30;99.90
23207;DHT22;11773;52.570;13.052;2022-08-07T03:47:57;14.30;99.90
23207;DHT22;11773;52.570;13.052;2022-08-07T03:50:27;14.40;99.90
23207;DHT22;11773;52.570;13.052;2022-08-07T03:53:00;14.30;99.90
23207;DHT22;11773;52.570;13.052;2022-08-07T03:55:33;14.50;99.90
23207;DHT22;11773;52.570;13.052;2022-08-07T03:58:04;14.40;99.90
23207;DHT22;11773;52.570;13.052;2022-08-07T04:00:37;14.30;99.90
23207;DHT22;11773;52.570;13.052;2022-08-07T04:03:11;14.30;99.90
23207;DHT22;11773;52.570;13.052;2022-08-07T04:05:41;14.30;99.90
23207;DHT22;11773;52.570;13.052;2022-08-07T04:08:14;14.30;99.90
23207;DHT22;11773;52.570;13.052;2022-08-07T04:10:46;14.10;99.90
23207;DHT22;11773;52.570;13.052;2022-08-07T04:13:18;14.00;99.90
23207;DHT22;11773;52.570;13.052;2022-08-07T04:15:51;14.00;99.90
23207;DHT22;11773;52.570;13.052;2022-08-07T04:18:21;14.10;99.90
23207;DHT22;11773;52.570;13.052;2022-08-07T04:20:52;14.10;99.90
23207;DHT22;11773;52.570;13.052;2022-08-07T04:23:24;14.20;99.90
23207;DHT22;11773;52.570;13.052;2022-08-07T04:25:57;14.20;99.90
23207;DHT22;11773;52.570;13.052;2022-08-07T04:28:28;14.20;99.90
23207;DHT22;11773;52.570;13.052;2022-08-07T04:30:59;14.10;99.90
23207;DHT22;11773;52.570;13.052;2022-08-07T04:33:30;14.20;99.90
23207;DHT22;11773;52.570;13.052;2022-08-07T04:36:03;13.90;99.90
23207;DHT22;11773;52.570;13.052;2022-08-07T04:38:36;13.90;99.90
23207;DHT22;11773;52.570;13.052;2022-08-07T04:41:08;14.10;99.90
23207;DHT22;11773;52.570;13.052;2022-08-07T04:43:40;14.20;99.90
23207;DHT22;11773;52.570;13.052;2022-08-07T04:46:39;14.10;99.90
23207;DHT22;11773;52.570;13.052;2022-08-07T04:49:24;14.10;99.90
23207;DHT22;11773;52.570;13.052;2022-08-07T04:52:52;14.30;99.90
23207;DHT22;11773;52.570;13.052;2022-08-07T04:55:21;14.30;99.90
23207;DHT22;11773;52.570;13.052;2022-08-07T04:58:04;14.30;99.90
23207;DHT22;11773;52.570;13.052;2022-08-07T05:01:12;14.30;99.90
23207;DHT22;11773;52.570;13.052;2022-08-07T05:03:51;14.30;99.90
23207;DHT22;11773;52.570;13.052;2022-08-07T05:06:53;14.40;99.90
23207;DHT22;11773;52.570;13.052;2022-08-07T05:09:41;14.30;99.90
23207;DHT22;11773;52.570;13.052;2022-08-07T05:12:21;14.40;99.90
23207;DHT22;11773;52.570;13.052;2022-08-07T05:14:52;14.50;99.90
23207;DHT22;11773;52.570;13.052;2022-08-07T05:17:30;14.50;99.90
23207;DHT22;11773;52.570;13.052;2022-08-07T05:20:04;14.50;99.90
23207;DHT22;11773;52.570;13.052;2022-08-07T05:22:37;14.70;99.90
23207;DHT22;11773;52.570;13.052;2022-08-07T05:25:10;14.60;99.90
23207;DHT22;11773;52.570;13.052;2022-08-07T05:27:44;14.50;99.90
23207;DHT22;11773;52.570;13.052;2022-08-07T05:30:16;14.90;99.90
23207;DHT22;11773;52.570;13.052;2022-08-07T05:32:49;15.50;99.90
23207;DHT22;11773;52.570;13.052;2022-08-07T05:35:21;16.10;99.90
23207;DHT22;11773;52.570;13.052;2022-08-07T05:37:54;16.70;99.90
23207;DHT22;11773;52.570;13.052;2022-08-07T05:40:25;17.40;99.90
23207;DHT22;11773;52.570;13.052;2022-08-07T05:42:56;17.80;99.90
23207;DHT22;11773;52.570;13.052;2022-08-07T05:45:27;18.10;99.90
23207;DHT22;11773;52.570;13.052;2022-08-07T05:47:59;18.50;99.90
23207;DHT22;11773;52.570;13.052;2022-08-07T05:50:33;18.80;99.90
23207;DHT22;11773;52.570;13.052;2022-08-07T05:53:04;19.00;99.90
23207;DHT22;11773;52.570;13.052;2022-08-07T05:55:36;19.50;99.90
23207;DHT22;11773;52.570;13.052;2022-08-07T05:58:09;19.70;99.90
23207;DHT22;11773;52.570;13.052;2022-08-07T06:00:41;20.10;99.90
23207;DHT22;11773;52.570;13.052;2022-08-07T06:03:17;20.40;99.90
23207;DHT22;11773;52.570;13.052;2022-08-07T06:05:51;20.70;99.90
23207;DHT22;11773;52.570;13.052;2022-08-07T06:08:24;20.90;99.90
23207;DHT22;11773;52.570;13.052;2022-08-07T06:10:56;21.20;99.90
23207;DHT22;11773;52.570;13.052;2022-08-07T06:13:27;21.40;99.90
23207;DHT22;11773;52.570;13.052;2022-08-07T06:16:00;21.70;99.90
23207;DHT22;11773;52.570;13.052;2022-08-07T06:18:35;21.90;99.90
23207;DHT22;11773;52.570;13.052;2022-08-07T06:21:07;22.10;99.90
23207;DHT22;11773;52.570;13.052;2022-08-07T06:23:40;22.40;99.90
23207;DHT22;11773;52.570;13.052;2022-08-07T06:26:13;22.60;99.90
23207;DHT22;11773;52.570;13.052;2022-08-07T06:28:56;22.80;99.70
23207;DHT22;11773;52.570;13.052;2022-08-07T06:31:22;22.90;99.70
23207;DHT22;11773;52.570;13.052;2022-08-07T06:33:53;23.20;98.90
23207;DHT22;11773;52.570;13.052;2022-08-07T06:36:23;23.30;98.30
23207;DHT22;11773;52.570;13.052;2022-08-07T06:38:55;23.50;97.70
23207;DHT22;11773;52.570;13.052;2022-08-07T06:41:36;23.60;97.90
23207;DHT22;11773;52.570;13.052;2022-08-07T06:44:15;23.80;96.90
23207;DHT22;11773;52.570;13.052;2022-08-07T06:46:47;23.70;96.70
23207;DHT22;11773;52.570;13.052;2022-08-07T06:49:18;24.00;96.50
23207;DHT22;11773;52.570;13.052;2022-08-07T06:51:48;24.30;96.20
23207;DHT22;11773;52.570;13.052;2022-08-07T06:54:21;24.60;95.60
23207;DHT22;11773;52.570;13.052;2022-08-07T06:56:55;24.60;96.20
23207;DHT22;11773;52.570;13.052;2022-08-07T06:59:34;24.70;95.20
23207;DHT22;11773;52.570;13.052;2022-08-07T07:02:19;24.90;94.80
23207;DHT22;11773;52.570;13.052;2022-08-07T07:04:51;25.10;95.00
23207;DHT22;11773;52.570;13.052;2022-08-07T07:07:21;25.20;95.00
23207;DHT22;11773;52.570;13.052;2022-08-07T07:09:53;25.30;94.70
23207;DHT22;11773;52.570;13.052;2022-08-07T07:12:42;25.30;94.00
23207;DHT22;11773;52.570;13.052;2022-08-07T07:15:30;25.30;94.00
23207;DHT22;11773;52.570;13.052;2022-08-07T07:18:18;25.50;94.80
23207;DHT22;11773;52.570;13.052;2022-08-07T07:20:58;24.90;92.80
23207;DHT22;11773;52.570;13.052;2022-08-07T07:23:30;24.40;92.10
23207;DHT22;11773;52.570;13.052;2022-08-07T07:26:04;24.60;94.60
23207;DHT22;11773;52.570;13.052;2022-08-07T07:28:47;25.10;94.20
23207;DHT22;11773;52.570;13.052;2022-08-07T07:31:26;25.00;92.00
23207;DHT22;11773;52.570;13.052;2022-08-07T07:34:12;25.10;92.10
23207;DHT22;11773;52.570;13.052;2022-08-07T07:36:46;25.60;92.70
23207;DHT22;11773;52.570;13.052;2022-08-07T07:39:21;25.40;91.40
23207;DHT22;11773;52.570;13.052;2022-08-07T07:41:55;25.40;92.10
23207;DHT22;11773;52.570;13.052;2022-08-07T07:44:30;25.70;92.30
23207;DHT22;11773;52.570;13.052;2022-08-07T07:47:02;25.50;91.90
23207;DHT22;11773;52.570;13.052;2022-08-07T07:49:37;25.20;90.90
23207;DHT22;11773;52.570;13.052;2022-08-07T07:52:11;25.90;92.40
23207;DHT22;11773;52.570;13.052;2022-08-07T07:54:44;26.20;91.40
23207;DHT22;11773;52.570;13.052;2022-08-07T07:57:19;25.90;90.90
23207;DHT22;11773;52.570;13.052;2022-08-07T07:59:54;25.70;90.80
23207;DHT22;11773;52.570;13.052;2022-08-07T08:02:26;25.70;90.60
23207;DHT22;11773;52.570;13.052;2022-08-07T08:05:01;25.30;90.20
23207;DHT22;11773;52.570;13.052;2022-08-07T08:07:36;25.20;90.40
23207;DHT22;11773;52.570;13.052;2022-08-07T08:10:09;25.60;90.50
23207;DHT22;11773;52.570;13.052;2022-08-07T08:12:42;25.20;91.10
23207;DHT22;11773;52.570;13.052;2022-08-07T08:15:16;25.20;90.90
23207;DHT22;11773;52.570;13.052;2022-08-07T08:17:47;25.60;91.30
23207;DHT22;11773;52.570;13.052;2022-08-07T08:20:20;26.10;91.00
23207;DHT22;11773;52.570;13.052;2022-08-07T08:22:53;26.40;91.30
23207;DHT22;11773;52.570;13.052;2022-08-07T08:25:46;26.30;90.30
23207;DHT22;11773;52.570;13.052;2022-08-07T08:28:42;26.60;89.90
23207;DHT22;11773;52.570;13.052;2022-08-07T08:31:19;26.60;89.10
23207;DHT22;11773;52.570;13.052;2022-08-07T08:33:53;26.20;89.10
23207;DHT22;11773;52.570;13.052;2022-08-07T08:36:30;26.50;90.30
23207;DHT22;11773;52.570;13.052;2022-08-07T08:39:02;26.50;88.90
23207;DHT22;11773;52.570;13.052;2022-08-07T08:41:52;26.20;90.00
23207;DHT22;11773;52.570;13.052;2022-08-07T08:51:15;25.70;89.90
23207;DHT22;11773;52.570;13.052;2022-08-07T08:53:57;26.00;88.10
23207;DHT22;11773;52.570;13.052;2022-08-07T08:56:32;26.30;88.70
23207;DHT22;11773;52.570;13.052;2022-08-07T08:59:26;26.10;88.70
23207;DHT22;11773;52.570;13.052;2022-08-07T09:02:12;25.80;89.10
23207;DHT22;11773;52.570;13.052;2022-08-07T09:04:59;26.00;88.70
23207;DHT22;11773;52.570;13.052;2022-08-07T09:07:37;25.90;87.70
23207;DHT22;11773;52.570;13.052;2022-08-07T09:10:24;26.00;87.20
23207;DHT22;11773;52.570;13.052;2022-08-07T09:13:08;25.60;89.00
23207;DHT22;11773;52.570;13.052;2022-08-07T09:19:06;25.50;89.50
23207;DHT22;11773;52.570;13.052;2022-08-07T09:25:10;25.40;90.60
23207;DHT22;11773;52.570;13.052;2022-08-07T09:28:03;25.80;88.20
23207;DHT22;11773;52.570;13.052;2022-08-07T09:30:58;25.70;88.10
23207;DHT22;11773;52.570;13.052;2022-08-07T09:36:33;26.10;88.90
23207;DHT22;11773;52.570;13.052;2022-08-07T09:44:51;26.30;87.20
23207;DHT22;11773;52.570;13.052;2022-08-07T09:47:43;26.50;86.40
23207;DHT22;11773;52.570;13.052;2022-08-07T09:50:33;25.90;86.20
23207;DHT22;11773;52.570;13.052;2022-08-07T09:53:10;25.90;87.20
23207;DHT22;11773;52.570;13.052;2022-08-07T09:55:56;26.30;87.20
23207;DHT22;11773;52.570;13.052;2022-08-07T09:58:39;26.60;89.10
23207;DHT22;11773;52.570;13.052;2022-08-07T10:10:37;26.40;86.40
23207;DHT22;11773;52.570;13.052;2022-08-07T10:13:32;26.10;85.40
23207;DHT22;11773;52.570;13.052;2022-08-07T10:16:28;26.30;84.30
23207;DHT22;11773;52.570;13.052;2022-08-07T10:24:45;26.70;84.60
23207;DHT22;11773;52.570;13.052;2022-08-07T10:27:47;27.00;84.30
23207;DHT22;11773;52.570;13.052;2022-08-07T10:30:41;27.10;85.00
23207;DHT22;11773;52.570;13.052;2022-08-07T10:33:23;27.20;86.00
23207;DHT22;11773;52.570;13.052;2022-08-07T10:36:29;27.00;84.60
23207;DHT22;11773;52.570;13.052;2022-08-07T10:45:25;27.20;84.50
23207;DHT22;11773;52.570;13.052;2022-08-07T10:52:11;26.00;85.30
23207;DHT22;11773;52.570;13.052;2022-08-07T10:54:36;26.70;83.70
23207;DHT22;11773;52.570;13.052;2022-08-07T10:57:23;27.00;81.60
23207;DHT22;11773;52.570;13.052;2022-08-07T11:00:12;27.00;80.50
23207;DHT22;11773;52.570;13.052;2022-08-07T11:03:08;27.00;81.70
23207;DHT22;11773;52.570;13.052;2022-08-07T11:06:07;27.10;82.50
23207;DHT22;11773;52.570;13.052;2022-08-07T11:08:58;26.70;83.80
23207;DHT22;11773;52.570;13.052;2022-08-07T11:11:34;27.20;87.00
23207;DHT22;11773;52.570;13.052;2022-08-07T11:14:27;27.30;80.90
23207;DHT22;11773;52.570;13.052;2022-08-07T11:17:20;27.40;81.30
23207;DHT22;11773;52.570;13.052;2022-08-07T11:20:16;27.00;83.00
23207;DHT22;11773;52.570;13.052;2022-08-07T11:23:10;27.50;80.40
23207;DHT22;11773;52.570;13.052;2022-08-07T11:26:11;27.80;79.90
23207;DHT22;11773;52.570;13.052;2022-08-07T11:29:02;27.90;81.60
23207;DHT22;11773;52.570;13.052;2022-08-07T11:31:57;27.80;79.90
23207;DHT22;11773;52.570;13.052;2022-08-07T11:43:16;28.60;79.90
23207;DHT22;11773;52.570;13.052;2022-08-07T11:46:28;27.80;77.40
23207;DHT22;11773;52.570;13.052;2022-08-07T12:07:19;28.40;79.70
23207;DHT22;11773;52.570;13.052;2022-08-07T12:10:03;28.20;80.40
23207;DHT22;11773;52.570;13.052;2022-08-07T12:12:52;28.20;81.30
23207;DHT22;11773;52.570;13.052;2022-08-07T12:15:32;28.00;79.40
23207;DHT22;11773;52.570;13.052;2022-08-07T12:18:14;28.20;81.30
23207;DHT22;11773;52.570;13.052;2022-08-07T12:21:09;27.90;82.00
23207;DHT22;11773;52.570;13.052;2022-08-07T12:24:00;27.70;80.50
23207;DHT22;11773;52.570;13.052;2022-08-07T12:29:48;27.50;80.70
23207;DHT22;11773;52.570;13.052;2022-08-07T12:32:41;27.70;82.90
23207;DHT22;11773;52.570;13.052;2022-08-07T12:35:15;28.00;80.70
23207;DHT22;11773;52.570;13.052;2022-08-07T12:37:50;27.90;84.00
23207;DHT22;11773;52.570;13.052;2022-08-07T12:40:28;27.50;78.60
23207;DHT22;11773;52.570;13.052;2022-08-07T12:43:05;27.80;87.00
23207;DHT22;11773;52.570;13.052;2022-08-07T12:45:43;28.00;80.90
23207;DHT22;11773;52.570;13.052;2022-08-07T12:48:31;28.20;81.40
23207;DHT22;11773;52.570;13.052;2022-08-07T12:51:27;28.10;76.50
23207;DHT22;11773;52.570;13.052;2022-08-07T12:54:50;27.80;82.30
23207;DHT22;11773;52.570;13.052;2022-08-07T12:56:44;28.10;79.60
23207;DHT22;11773;52.570;13.052;2022-08-07T12:59:21;28.10;81.10
23207;DHT22;11773;52.570;13.052;2022-08-07T13:02:24;28.40;82.80
23207;DHT22;11773;52.570;13.052;2022-08-07T13:05:16;28.40;78.70
23207;DHT22;11773;52.570;13.052;2022-08-07T13:11:01;27.80;77.10
23207;DHT22;11773;52.570;13.052;2022-08-07T13:13:56;27.60;82.20
23207;DHT22;11773;52.570;13.052;2022-08-07T13:19:25;28.20;77.50
23207;DHT22;11773;52.570;13.052;2022-08-07T13:22:23;28.10;78.00
23207;DHT22;11773;52.570;13.052;2022-08-07T13:24:55;27.80;75.60
23207;DHT22;11773;52.570;13.052;2022-08-07T13:27:41;27.90;74.50
23207;DHT22;11773;52.570;13.052;2022-08-07T13:30:21;28.20;81.80
23207;DHT22;11773;52.570;13.052;2022-08-07T13:33:13;28.20;76.30
23207;DHT22;11773;52.570;13.052;2022-08-07T13:35:53;28.00;80.50
23207;DHT22;11773;52.570;13.052;2022-08-07T13:38:39;28.00;78.90
23207;DHT22;11773;52.570;13.052;2022-08-07T13:41:29;27.90;77.50
23207;DHT22;11773;52.570;13.052;2022-08-07T13:44:06;27.80;78.80
23207;DHT22;11773;52.570;13.052;2022-08-07T13:46:40;27.90;78.30
23207;DHT22;11773;52.570;13.052;2022-08-07T13:49:16;27.90;83.70
23207;DHT22;11773;52.570;13.052;2022-08-07T13:51:50;27.70;77.30
23207;DHT22;11773;52.570;13.052;2022-08-07T13:54:28;27.70;77.00
23207;DHT22;11773;52.570;13.052;2022-08-07T13:57:02;27.70;81.00
23207;DHT22;11773;52.570;13.052;2022-08-07T13:59:44;27.40;79.10
23207;DHT22;11773;52.570;13.052;2022-08-07T14:02:21;27.70;84.10
23207;DHT22;11773;52.570;13.052;2022-08-07T14:04:58;27.70;85.90
23207;DHT22;11773;52.570;13.052;2022-08-07T14:07:45;28.00;81.50
23207;DHT22;11773;52.570;13.052;2022-08-07T14:10:17;27.70;81.90
23207;DHT22;11773;52.570;13.052;2022-08-07T14:15:49;27.50;82.10
23207;DHT22;11773;52.570;13.052;2022-08-07T14:18:37;27.60;82.20
23207;DHT22;11773;52.570;13.052;2022-08-07T14:21:15;27.70;79.90
23207;DHT22;11773;52.570;13.052;2022-08-07T14:23:59;27.60;82.90
23207;DHT22;11773;52.570;13.052;2022-08-07T14:26:36;27.50;84.60
23207;DHT22;11773;52.570;13.052;2022-08-07T14:29:14;27.40;80.50
23207;DHT22;11773;52.570;13.052;2022-08-07T14:31:48;27.40;84.30
23207;DHT22;11773;52.570;13.052;2022-08-07T14:34:23;27.30;83.90
23207;DHT22;11773;52.570;13.052;2022-08-07T14:36:59;27.10;84.70
23207;DHT22;11773;52.570;13.052;2022-08-07T14:39:31;26.90;83.10
23207;DHT22;11773;52.570;13.052;2022-08-07T14:42:10;26.90;82.40
23207;DHT22;11773;52.570;13.052;2022-08-07T14:44:45;26.90;79.40
23207;DHT22;11773;52.570;13.052;2022-08-07T14:47:19;26.80;82.70
23207;DHT22;11773;52.570;13.052;2022-08-07T14:49:53;26.90;83.30
23207;DHT22;11773;52.570;13.052;2022-08-07T14:52:26;26.90;84.20
23207;DHT22;11773;52.570;13.052;2022-08-07T14:55:02;27.10;82.80
23207;DHT22;11773;52.570;13.052;2022-08-07T14:57:35;27.20;82.50
23207;DHT22;11773;52.570;13.052;2022-08-07T15:00:09;27.10;77.90
23207;DHT22;11773;52.570;13.052;2022-08-07T15:02:44;27.10;81.20
23207;DHT22;11773;52.570;13.052;2022-08-07T15:05:17;27.20;86.00
23207;DHT22;11773;52.570;13.052;2022-08-07T15:08:09;27.20;81.50
23207;DHT22;11773;52.570;13.052;2022-08-07T15:10:41;27.10;84.50
23207;DHT22;11773;52.570;13.052;2022-08-07T15:13:20;27.10;83.70
23207;DHT22;11773;52.570;13.052;2022-08-07T15:15:56;26.90;82.60
23207;DHT22;11773;52.570;13.052;2022-08-07T15:18:37;27.00;86.40
23207;DHT22;11773;52.570;13.052;2022-08-07T15:21:17;26.90;80.30
23207;DHT22;11773;52.570;13.052;2022-08-07T15:23:53;26.90;78.90
23207;DHT22;11773;52.570;13.052;2022-08-07T15:26:46;26.90;79.40
23207;DHT22;11773;52.570;13.052;2022-08-07T15:29:15;26.70;78.70
23207;DHT22;11773;52.570;13.052;2022-08-07T15:31:50;26.70;79.70
23207;DHT22;11773;52.570;13.052;2022-08-07T15:34:22;26.90;83.20
23207;DHT22;11773;52.570;13.052;2022-08-07T15:36:53;26.80;78.60
23207;DHT22;11773;52.570;13.052;2022-08-07T15:39:25;26.90;87.20
23207;DHT22;11773;52.570;13.052;2022-08-07T15:42:01;26.90;80.40
23207;DHT22;11773;52.570;13.052;2022-08-07T15:44:46;26.80;79.40
23207;DHT22;11773;52.570;13.052;2022-08-07T15:47:20;26.90;83.00
23207;DHT22;11773;52.570;13.052;2022-08-07T15:49:55;26.90;81.20
23207;DHT22;11773;52.570;13.052;2022-08-07T15:52:29;27.00;86.20
23207;DHT22;11773;52.570;13.052;2022-08-07T15:55:05;27.00;86.90
23207;DHT22;11773;52.570;13.052;2022-08-07T15:57:42;26.90;83.60
23207;DHT22;11773;52.570;13.052;2022-08-07T16:00:16;26.90;82.60
23207;DHT22;11773;52.570;13.052;2022-08-07T16:02:52;26.90;79.20
23207;DHT22;11773;52.570;13.052;2022-08-07T16:05:25;26.90;80.80
23207;DHT22;11773;52.570;13.052;2022-08-07T16:08:11;26.90;79.70
23207;DHT22;11773;52.570;13.052;2022-08-07T16:10:47;27.00;82.10
23207;DHT22;11773;52.570;13.052;2022-08-07T16:19:27;27.10;81.50
23207;DHT22;11773;52.570;13.052;2022-08-07T16:25:24;27.10;82.40
23207;DHT22;11773;52.570;13.052;2022-08-07T16:31:53;27.10;82.70
23207;DHT22;11773;52.570;13.052;2022-08-07T16:37:26;27.00;83.50
23207;DHT22;11773;52.570;13.052;2022-08-07T16:43:40;26.90;80.90
23207;DHT22;11773;52.570;13.052;2022-08-07T16:49:45;27.00;82.00
23207;DHT22;11773;52.570;13.052;2022-08-07T16:52:47;26.90;81.00
23207;DHT22;11773;52.570;13.052;2022-08-07T16:55:37;27.00;79.70
23207;DHT22;11773;52.570;13.052;2022-08-07T17:07:15;26.80;80.50
23207;DHT22;11773;52.570;13.052;2022-08-07T17:10:02;26.80;81.90
23207;DHT22;11773;52.570;13.052;2022-08-07T17:12:46;26.80;81.70
23207;DHT22;11773;52.570;13.052;2022-08-07T17:21:43;26.50;81.60
23207;DHT22;11773;52.570;13.052;2022-08-07T17:25:24;26.40;81.90
23207;DHT22;11773;52.570;13.052;2022-08-07T17:27:37;26.30;82.60
23207;DHT22;11773;52.570;13.052;2022-08-07T17:30:10;26.50;83.20
23207;DHT22;11773;52.570;13.052;2022-08-07T17:35:57;26.10;82.10
23207;DHT22;11773;52.570;13.052;2022-08-07T17:39:02;26.20;84.60
23207;DHT22;11773;52.570;13.052;2022-08-07T17:44:24;26.20;83.40
23207;DHT22;11773;52.570;13.052;2022-08-07T17:47:06;26.20;82.40
23207;DHT22;11773;52.570;13.052;2022-08-07T17:50:07;26.10;83.60
23207;DHT22;11773;52.570;13.052;2022-08-07T17:58:24;25.80;82.90
23207;DHT22;11773;52.570;13.052;2022-08-07T18:00:57;25.90;83.40
23207;DHT22;11773;52.570;13.052;2022-08-07T18:03:34;25.60;83.50
23207;DHT22;11773;52.570;13.052;2022-08-07T18:06:09;25.70;85.20
23207;DHT22;11773;52.570;13.052;2022-08-07T18:08:47;25.80;86.30
23207;DHT22;11773;52.570;13.052;2022-08-07T18:11:28;25.80;85.60
23207;DHT22;11773;52.570;13.052;2022-08-07T18:14:17;25.90;88.20
23207;DHT22;11773;52.570;13.052;2022-08-07T18:17:09;25.90;88.20
23207;DHT22;11773;52.570;13.052;2022-08-07T18:20:11;25.70;89.60
23207;DHT22;11773;52.570;13.052;2022-08-07T18:22:47;25.60;89.70
23207;DHT22;11773;52.570;13.052;2022-08-07T18:25:29;25.40;90.40
23207;DHT22;11773;52.570;13.052;2022-08-07T18:31:04;25.20;90.80
23207;DHT22;11773;52.570;13.052;2022-08-07T18:37:07;24.90;90.70
23207;DHT22;11773;52.570;13.052;2022-08-07T18:40:00;24.80;90.80
23207;DHT22;11773;52.570;13.052;2022-08-07T18:43:02;24.60;91.30
23207;DHT22;11773;52.570;13.052;2022-08-07T18:45:58;24.60;91.70